sensor_id;sensor_type;location;lat;lon;timestamp;temperature;humidity
19878;DHT22;10101;52.204;9.910;2023-01-28T00:00:16;1.20;99.90
19878;DHT22;10101;52.204;9.910;2023-01-28T00:02:43;1.20;99.90
19878;DHT22;10101;52.204;9.910;2023-01-28T00:05:10;1.20;99.90
19878;DHT22;10101;52.204;9.910;2023-01-28T00:07:36;1.20;99.90
19878;DHT22;10101;52.204;9.910;2023-01-28T00:10:04;1.20;99.90
19878;DHT22;10101;52.204;9.910;2023-01-28T00:12:30;1.20;99.90
19878;DHT22;10101;52.204;9.910;2023-01-28T00:14:57;1.10;99.90
19878;DHT22;10101;52.204;9.910;2023-01-28T00:17:25;1.10;99.90
19878;DHT22;10101;52.204;9.910;2023-01-28T00:19:52;1.10;99.90
19878;DHT22;10101;52.204;9.910;2023-01-28T00:22:18;1.00;99.90
19878;DHT22;10101;52.204;9.910;2023-01-28T00:24:46;1.00;99.90
19878;DHT22;10101;52.204;9.910;2023-01-28T00:27:12;1.00;99.90
19878;DHT22;10101;52.204;9.910;2023-01-28T00:29:39;1.00;99.90
19878;DHT22;10101;52.204;9.910;2023-01-28T00:32:06;1.00;99.90
19878;DHT22;10101;52.204;9.910;2023-01-28T00:34:34;1.00;99.90
19878;DHT22;10101;52.204;9.910;2023-01-28T00:37:00;1.10;99.90
19878;DHT22;10101;52.204;9.910;2023-01-28T00:39:27;1.00;99.90
19878;DHT22;10101;52.204;9.910;2023-01-28T00:41:54;1.10;99.90
19878;DHT22;10101;52.204;9.910;2023-01-28T00:44:20;1.10;99.90
19878;DHT22;10101;52.204;9.910;2023-01-28T00:46:47;1.00;99.90
19878;DHT22;10101;52.204;9.910;2023-01-28T00:49:14;1.10;99.90
19878;DHT22;10101;52.204;9.910;2023-01-28T00:51:42;1.10;99.90
19878;DHT22;10101;52.204;9.910;2023-01-28T00:54:11;1.20;99.90
19878;DHT22;10101;52.204;9.910;2023-01-28T00:56:38;1.20;99.90
19878;DHT22;10101;52.204;9.910;2023-01-28T00:59:04;1.20;99.90
19878;DHT22;10101;52.204;9.910;2023-01-28T01:01:31;1.10;99.90
19878;DHT22;10101;52.204;9.910;2023-01-28T01:03:58;1.20;99.90
19878;DHT22;10101;52.204;9.910;2023-01-28T01:06:29;1.20;99.90
19878;DHT22;10101;52.204;9.910;2023-01-28T01:08:57;1.10;99.90
19878;DHT22;10101;52.204;9.910;2023-01-28T01:11:24;1.10;99.90
19878;DHT22;10101;52.204;9.910;2023-01-28T01:13:52;1.10;99.90
19878;DHT22;10101;52.204;9.910;2023-01-28T01:16:20;1.10;99.90
19878;DHT22;10101;52.204;9.910;2023-01-28T01:18:47;1.20;99.90
19878;DHT22;10101;52.204;9.910;2023-01-28T01:21:16;1.10;99.90
19878;DHT22;10101;52.204;9.910;2023-01-28T01:23:44;1.20;99.90
19878;DHT22;10101;52.204;9.910;2023-01-28T01:26:13;1.20;99.90
19878;DHT22;10101;52.204;9.910;2023-01-28T01:28:40;1.20;99.90
19878;DHT22;10101;52.204;9.910;2023-01-28T01:31:11;1.20;99.90
19878;DHT22;10101;52.204;9.910;2023-01-28T01:33:38;1.10;99.90
19878;DHT22;10101;52.204;9.910;2023-01-28T01:36:06;1.10;99.90
19878;DHT22;10101;52.204;9.910;2023-01-28T01:38:33;1.10;99.90
19878;DHT22;10101;52.204;9.910;2023-01-28T01:41:00;1.10;99.90
19878;DHT22;10101;52.204;9.910;2023-01-28T01:43:47;1.10;99.90
19878;DHT22;10101;52.204;9.910;2023-01-28T01:46:15;1.10;99.90
19878;DHT22;10101;52.204;9.910;2023-01-28T01:48:42;1.10;99.90
19878;DHT22;10101;52.204;9.910;2023-01-28T01:51:12;1.10;99.90
19878;DHT22;10101;52.204;9.910;2023-01-28T01:53:43;1.10;99.90
19878;DHT22;10101;52.204;9.910;2023-01-28T01:56:13;1.00;99.90
19878;DHT22;10101;52.204;9.910;2023-01-28T01:58:43;0.90;99.90
19878;DHT22;10101;52.204;9.910;2023-01-28T02:01:14;0.90;99.90
19878;DHT22;10101;52.204;9.910;2023-01-28T02:03:52;0.90;99.90
19878;DHT22;10101;52.204;9.910;2023-01-28T02:06:21;1.00;99.90
19878;DHT22;10101;52.204;9.910;2023-01-28T02:08:48;0.90;99.90
19878;DHT22;10101;52.204;9.910;2023-01-28T02:11:16;0.90;99.90
19878;DHT22;10101;52.204;9.910;2023-01-28T02:13:46;1.00;99.90
19878;DHT22;10101;52.204;9.910;2023-01-28T02:16:16;1.10;99.90
19878;DHT22;10101;52.204;9.910;2023-01-28T02:18:43;1.00;99.90
19878;DHT22;10101;52.204;9.910;2023-01-28T02:21:26;1.00;99.90
19878;DHT22;10101;52.204;9.910;2023-01-28T02:24:07;1.00;99.90
19878;DHT22;10101;52.204;9.910;2023-01-28T02:26:57;1.00;99.90
19878;DHT22;10101;52.204;9.910;2023-01-28T02:29:33;0.90;99.90
19878;DHT22;10101;52.204;9.910;2023-01-28T02:32:06;0.90;99.90
19878;DHT22;10101;52.204;9.910;2023-01-28T02:34:40;0.90;99.90
19878;DHT22;10101;52.204;9.910;2023-01-28T02:37:12;0.90;99.90
19878;DHT22;10101;52.204;9.910;2023-01-28T02:39:46;1.00;99.90
19878;DHT22;10101;52.204;9.910;2023-01-28T02:42:17;0.90;99.90
19878;DHT22;10101;52.204;9.910;2023-01-28T02:44:46;0.90;99.90
19878;DHT22;10101;52.204;9.910;2023-01-28T02:47:13;0.90;99.90
19878;DHT22;10101;52.204;9.910;2023-01-28T02:50:00;0.90;99.90
19878;DHT22;10101;52.204;9.910;2023-01-28T02:52:35;0.90;99.90
19878;DHT22;10101;52.204;9.910;2023-01-28T02:55:29;0.90;99.90
19878;DHT22;10101;52.204;9.910;2023-01-28T02:58:04;1.00;99.90
19878;DHT22;10101;52.204;9.910;2023-01-28T03:00:45;0.90;99.90
19878;DHT22;10101;52.204;9.910;2023-01-28T03:03:19;0.90;99.90
19878;DHT22;10101;52.204;9.910;2023-01-28T03:05:50;1.00;99.90
19878;DHT22;10101;52.204;9.910;2023-01-28T03:08:33;0.90;99.90
19878;DHT22;10101;52.204;9.910;2023-01-28T03:11:18;0.90;99.90
19878;DHT22;10101;52.204;9.910;2023-01-28T03:14:03;0.90;99.90
19878;DHT22;10101;52.204;9.910;2023-01-28T03:16:50;0.80;99.90
19878;DHT22;10101;52.204;9.910;2023-01-28T03:19:36;0.90;99.90
19878;DHT22;10101;52.204;9.910;2023-01-28T03:22:21;0.90;99.90
19878;DHT22;10101;52.204;9.910;2023-01-28T03:25:08;0.90;99.90
19878;DHT22;10101;52.204;9.910;2023-01-28T03:28:01;0.90;99.90
19878;DHT22;10101;52.204;9.910;2023-01-28T03:30:49;0.80;99.90
19878;DHT22;10101;52.204;9.910;2023-01-28T03:33:37;0.80;99.90
19878;DHT22;10101;52.204;9.910;2023-01-28T03:36:22;0.80;99.90
19878;DHT22;10101;52.204;9.910;2023-01-28T03:39:06;0.70;99.90
19878;DHT22;10101;52.204;9.910;2023-01-28T03:41:33;0.70;99.90
19878;DHT22;10101;52.204;9.910;2023-01-28T03:44:00;0.80;99.90
19878;DHT22;10101;52.204;9.910;2023-01-28T03:46:44;0.80;99.90
19878;DHT22;10101;52.204;9.910;2023-01-28T03:49:14;0.70;99.90
19878;DHT22;10101;52.204;9.910;2023-01-28T03:51:41;0.80;99.90
19878;DHT22;10101;52.204;9.910;2023-01-28T03:54:08;0.80;99.90
19878;DHT22;10101;52.204;9.910;2023-01-28T03:56:35;0.60;99.90
19878;DHT22;10101;52.204;9.910;2023-01-28T03:59:04;0.60;99.90
19878;DHT22;10101;52.204;9.910;2023-01-28T04:01:31;0.50;99.90
19878;DHT22;10101;52.204;9.910;2023-01-28T04:03:58;0.50;99.90
19878;DHT22;10101;52.204;9.910;2023-01-28T04:06:26;0.50;99.90
19878;DHT22;10101;52.204;9.910;2023-01-28T04:08:53;0.60;99.90
19878;DHT22;10101;52.204;9.910;2023-01-28T04:11:24;0.60;99.90
19878;DHT22;10101;52.204;9.910;2023-01-28T04:13:51;0.60;99.90
19878;DHT22;10101;52.204;9.910;2023-01-28T04:16:18;0.60;99.90
19878;DHT22;10101;52.204;9.910;2023-01-28T04:18:45;0.60;99.90
19878;DHT22;10101;52.204;9.910;2023-01-28T04:21:12;0.60;99.90
19878;DHT22;10101;52.204;9.910;2023-01-28T04:23:40;0.50;99.90
19878;DHT22;10101;52.204;9.910;2023-01-28T04:26:07;0.50;99.90
19878;DHT22;10101;52.204;9.910;2023-01-28T04:28:34;0.60;99.90
19878;DHT22;10101;52.204;9.910;2023-01-28T04:31:01;0.60;99.90
19878;DHT22;10101;52.204;9.910;2023-01-28T04:33:28;0.60;99.90
19878;DHT22;10101;52.204;9.910;2023-01-28T04:35:54;0.60;99.90
19878;DHT22;10101;52.204;9.910;2023-01-28T04:38:21;0.70;99.90
19878;DHT22;10101;52.204;9.910;2023-01-28T04:40:50;0.70;99.90
19878;DHT22;10101;52.204;9.910;2023-01-28T04:43:17;0.60;99.90
19878;DHT22;10101;52.204;9.910;2023-01-28T04:45:44;0.70;99.90
19878;DHT22;10101;52.204;9.910;2023-01-28T04:48:11;0.70;99.90
19878;DHT22;10101;52.204;9.910;2023-01-28T04:50:38;0.70;99.90
19878;DHT22;10101;52.204;9.910;2023-01-28T04:53:05;0.70;99.90
19878;DHT22;10101;52.204;9.910;2023-01-28T04:55:32;0.70;99.90
19878;DHT22;10101;52.204;9.910;2023-01-28T04:58:00;0.80;99.90
19878;DHT22;10101;52.204;9.910;2023-01-28T05:00:27;0.70;99.90
19878;DHT22;10101;52.204;9.910;2023-01-28T05:02:54;0.70;99.90
19878;DHT22;10101;52.204;9.910;2023-01-28T05:05:21;0.70;99.90
19878;DHT22;10101;52.204;9.910;2023-01-28T05:07:50;0.70;99.90
19878;DHT22;10101;52.204;9.910;2023-01-28T05:10:18;0.70;99.90
19878;DHT22;10101;52.204;9.910;2023-01-28T05:12:45;0.80;99.90
19878;DHT22;10101;52.204;9.910;2023-01-28T05:15:13;0.70;99.90
19878;DHT22;10101;52.204;9.910;2023-01-28T05:17:40;0.70;99.90
19878;DHT22;10101;52.204;9.910;2023-01-28T05:20:09;0.70;99.90
19878;DHT22;10101;52.204;9.910;2023-01-28T05:22:36;0.70;99.90
19878;DHT22;10101;52.204;9.910;2023-01-28T05:25:03;0.70;99.90
19878;DHT22;10101;52.204;9.910;2023-01-28T05:27:30;0.70;99.90
19878;DHT22;10101;52.204;9.910;2023-01-28T05:29:57;0.60;99.90
19878;DHT22;10101;52.204;9.910;2023-01-28T05:32:25;0.60;99.90
19878;DHT22;10101;52.204;9.910;2023-01-28T05:34:52;0.60;99.90
19878;DHT22;10101;52.204;9.910;2023-01-28T05:37:19;0.60;99.90
19878;DHT22;10101;52.204;9.910;2023-01-28T05:39:45;0.70;99.90
19878;DHT22;10101;52.204;9.910;2023-01-28T05:42:12;0.70;99.90
19878;DHT22;10101;52.204;9.910;2023-01-28T05:44:40;0.60;99.90
19878;DHT22;10101;52.204;9.910;2023-01-28T05:47:06;0.50;99.90
19878;DHT22;10101;52.204;9.910;2023-01-28T05:49:34;0.50;99.90
19878;DHT22;10101;52.204;9.910;2023-01-28T05:52:01;0.50;99.90
19878;DHT22;10101;52.204;9.910;2023-01-28T05:54:28;0.50;99.90
19878;DHT22;10101;52.204;9.910;2023-01-28T05:56:54;0.50;99.90
19878;DHT22;10101;52.204;9.910;2023-01-28T05:59:21;0.60;99.90
19878;DHT22;10101;52.204;9.910;2023-01-28T06:01:48;0.60;99.90
19878;DHT22;10101;52.204;9.910;2023-01-28T06:04:15;0.60;99.90
19878;DHT22;10101;52.204;9.910;2023-01-28T06:06:44;0.50;1.00
19878;DHT22;10101;52.204;9.910;2023-01-28T06:09:11;0.60;1.00
19878;DHT22;10101;52.204;9.910;2023-01-28T06:11:38;0.60;1.00
19878;DHT22;10101;52.204;9.910;2023-01-28T06:14:04;0.60;1.00
19878;DHT22;10101;52.204;9.910;2023-01-28T06:16:31;0.50;1.00
19878;DHT22;10101;52.204;9.910;2023-01-28T06:18:58;0.50;99.90
19878;DHT22;10101;52.204;9.910;2023-01-28T06:21:25;0.50;99.90
19878;DHT22;10101;52.204;9.910;2023-01-28T06:23:53;0.50;1.00
19878;DHT22;10101;52.204;9.910;2023-01-28T06:26:20;0.50;1.00
19878;DHT22;10101;52.204;9.910;2023-01-28T06:28:47;0.50;1.00
19878;DHT22;10101;52.204;9.910;2023-01-28T06:31:14;0.40;1.00
19878;DHT22;10101;52.204;9.910;2023-01-28T06:33:40;0.40;99.90
19878;DHT22;10101;52.204;9.910;2023-01-28T06:36:07;0.40;99.90
19878;DHT22;10101;52.204;9.910;2023-01-28T06:38:34;0.40;99.90
19878;DHT22;10101;52.204;9.910;2023-01-28T06:41:02;0.40;99.90
19878;DHT22;10101;52.204;9.910;2023-01-28T06:43:29;0.30;99.90
19878;DHT22;10101;52.204;9.910;2023-01-28T06:45:57;0.30;99.90
19878;DHT22;10101;52.204;9.910;2023-01-28T06:48:24;0.30;99.90
19878;DHT22;10101;52.204;9.910;2023-01-28T06:50:51;0.30;99.90
19878;DHT22;10101;52.204;9.910;2023-01-28T06:53:18;0.30;1.00
19878;DHT22;10101;52.204;9.910;2023-01-28T06:55:44;0.40;1.00
19878;DHT22;10101;52.204;9.910;2023-01-28T06:58:13;0.40;1.00
19878;DHT22;10101;52.204;9.910;2023-01-28T07:00:39;0.40;1.00
19878;DHT22;10101;52.204;9.910;2023-01-28T07:03:06;0.40;1.00
19878;DHT22;10101;52.204;9.910;2023-01-28T07:05:33;0.40;1.00
19878;DHT22;10101;52.204;9.910;2023-01-28T07:08:00;0.40;37.20
19878;DHT22;10101;52.204;9.910;2023-01-28T07:10:27;0.40;1.00
19878;DHT22;10101;52.204;9.910;2023-01-28T07:12:54;0.40;1.00
19878;DHT22;10101;52.204;9.910;2023-01-28T07:15:22;0.40;99.90
19878;DHT22;10101;52.204;9.910;2023-01-28T07:17:48;0.50;99.90
19878;DHT22;10101;52.204;9.910;2023-01-28T07:20:16;0.50;99.90
19878;DHT22;10101;52.204;9.910;2023-01-28T07:22:43;0.40;1.00
19878;DHT22;10101;52.204;9.910;2023-01-28T07:25:11;0.50;1.00
19878;DHT22;10101;52.204;9.910;2023-01-28T07:27:39;0.50;1.00
19878;DHT22;10101;52.204;9.910;2023-01-28T07:30:07;0.40;1.00
19878;DHT22;10101;52.204;9.910;2023-01-28T07:32:35;0.40;1.00
19878;DHT22;10101;52.204;9.910;2023-01-28T07:35:02;0.40;99.90
19878;DHT22;10101;52.204;9.910;2023-01-28T07:37:29;0.40;1.00
19878;DHT22;10101;52.204;9.910;2023-01-28T07:39:55;0.40;99.90
19878;DHT22;10101;52.204;9.910;2023-01-28T07:42:22;0.40;99.90
19878;DHT22;10101;52.204;9.910;2023-01-28T07:44:49;0.40;99.90
19878;DHT22;10101;52.204;9.910;2023-01-28T07:47:15;0.40;99.90
19878;DHT22;10101;52.204;9.910;2023-01-28T07:49:45;0.50;99.90
19878;DHT22;10101;52.204;9.910;2023-01-28T07:52:12;0.50;1.00
19878;DHT22;10101;52.204;9.910;2023-01-28T07:54:39;0.50;1.00
19878;DHT22;10101;52.204;9.910;2023-01-28T07:57:07;0.50;99.90
19878;DHT22;10101;52.204;9.910;2023-01-28T07:59:35;0.50;99.90
19878;DHT22;10101;52.204;9.910;2023-01-28T08:02:01;0.50;99.90
19878;DHT22;10101;52.204;9.910;2023-01-28T08:04:28;0.40;26.50
19878;DHT22;10101;52.204;9.910;2023-01-28T08:06:57;0.40;1.00
19878;DHT22;10101;52.204;9.910;2023-01-28T08:09:24;0.50;1.00
19878;DHT22;10101;52.204;9.910;2023-01-28T08:11:51;0.50;1.00
19878;DHT22;10101;52.204;9.910;2023-01-28T08:14:18;0.50;1.00
19878;DHT22;10101;52.204;9.910;2023-01-28T08:16:45;0.60;1.00
19878;DHT22;10101;52.204;9.910;2023-01-28T08:19:12;0.70;1.00
19878;DHT22;10101;52.204;9.910;2023-01-28T08:21:39;0.60;1.00
19878;DHT22;10101;52.204;9.910;2023-01-28T08:24:07;0.60;99.90
19878;DHT22;10101;52.204;9.910;2023-01-28T08:26:34;0.50;99.90
19878;DHT22;10101;52.204;9.910;2023-01-28T08:29:00;0.60;99.90
19878;DHT22;10101;52.204;9.910;2023-01-28T08:31:27;0.60;99.90
19878;DHT22;10101;52.204;9.910;2023-01-28T08:33:54;0.60;99.90
19878;DHT22;10101;52.204;9.910;2023-01-28T08:36:21;0.60;80.50
19878;DHT22;10101;52.204;9.910;2023-01-28T08:38:51;0.60;1.00
19878;DHT22;10101;52.204;9.910;2023-01-28T08:41:20;0.70;1.00
19878;DHT22;10101;52.204;9.910;2023-01-28T08:43:47;0.80;1.00
19878;DHT22;10101;52.204;9.910;2023-01-28T08:46:14;0.90;1.00
19878;DHT22;10101;52.204;9.910;2023-01-28T08:48:41;0.90;1.00
19878;DHT22;10101;52.204;9.910;2023-01-28T08:51:08;0.80;1.00
19878;DHT22;10101;52.204;9.910;2023-01-28T08:53:35;0.90;1.00
19878;DHT22;10101;52.204;9.910;2023-01-28T08:56:01;0.90;1.00
19878;DHT22;10101;52.204;9.910;2023-01-28T08:58:29;0.90;99.90
19878;DHT22;10101;52.204;9.910;2023-01-28T09:00:56;0.90;99.90
19878;DHT22;10101;52.204;9.910;2023-01-28T09:03:23;0.90;99.90
19878;DHT22;10101;52.204;9.910;2023-01-28T09:05:50;1.10;99.90
19878;DHT22;10101;52.204;9.910;2023-01-28T09:08:16;1.10;99.90
19878;DHT22;10101;52.204;9.910;2023-01-28T09:10:43;1.00;5.60
19878;DHT22;10101;52.204;9.910;2023-01-28T09:13:11;0.90;1.00
19878;DHT22;10101;52.204;9.910;2023-01-28T09:15:40;1.00;1.00
19878;DHT22;10101;52.204;9.910;2023-01-28T09:18:07;1.00;1.00
19878;DHT22;10101;52.204;9.910;2023-01-28T09:20:34;1.00;1.00
19878;DHT22;10101;52.204;9.910;2023-01-28T09:23:02;1.00;1.00
19878;DHT22;10101;52.204;9.910;2023-01-28T09:25:29;1.00;1.00
19878;DHT22;10101;52.204;9.910;2023-01-28T09:27:56;1.00;1.00
19878;DHT22;10101;52.204;9.910;2023-01-28T09:30:23;1.00;99.90
19878;DHT22;10101;52.204;9.910;2023-01-28T09:32:52;1.00;99.90
19878;DHT22;10101;52.204;9.910;2023-01-28T09:35:19;1.00;99.90
19878;DHT22;10101;52.204;9.910;2023-01-28T09:37:46;1.10;99.90
19878;DHT22;10101;52.204;9.910;2023-01-28T09:40:16;0.90;74.50
19878;DHT22;10101;52.204;9.910;2023-01-28T09:42:57;0.90;1.00
19878;DHT22;10101;52.204;9.910;2023-01-28T09:45:31;1.00;1.00
19878;DHT22;10101;52.204;9.910;2023-01-28T09:48:02;1.00;1.00
19878;DHT22;10101;52.204;9.910;2023-01-28T09:50:32;0.90;1.00
19878;DHT22;10101;52.204;9.910;2023-01-28T09:53:03;1.00;1.00
19878;DHT22;10101;52.204;9.910;2023-01-28T09:55:34;1.00;1.00
19878;DHT22;10101;52.204;9.910;2023-01-28T09:58:05;1.00;1.00
19878;DHT22;10101;52.204;9.910;2023-01-28T10:00:36;1.00;1.00
19878;DHT22;10101;52.204;9.910;2023-01-28T10:03:38;1.00;1.00
19878;DHT22;10101;52.204;9.910;2023-01-28T10:06:25;1.10;1.00
19878;DHT22;10101;52.204;9.910;2023-01-28T10:09:13;1.00;1.00
19878;DHT22;10101;52.204;9.910;2023-01-28T10:11:53;1.00;1.00
19878;DHT22;10101;52.204;9.910;2023-01-28T10:14:31;1.00;99.90
19878;DHT22;10101;52.204;9.910;2023-01-28T10:17:05;0.90;99.90
19878;DHT22;10101;52.204;9.910;2023-01-28T10:19:38;1.00;99.90
19878;DHT22;10101;52.204;9.910;2023-01-28T10:22:08;1.00;99.90
19878;DHT22;10101;52.204;9.910;2023-01-28T10:24:42;1.10;99.90
19878;DHT22;10101;52.204;9.910;2023-01-28T10:27:13;1.10;99.90
19878;DHT22;10101;52.204;9.910;2023-01-28T10:29:40;1.00;99.90
19878;DHT22;10101;52.204;9.910;2023-01-28T10:32:16;0.90;96.90
19878;DHT22;10101;52.204;9.910;2023-01-28T10:34:47;0.90;93.60
19878;DHT22;10101;52.204;9.910;2023-01-28T10:37:15;1.00;33.10
19878;DHT22;10101;52.204;9.910;2023-01-28T10:39:42;1.00;1.00
19878;DHT22;10101;52.204;9.910;2023-01-28T10:42:16;1.00;1.00
19878;DHT22;10101;52.204;9.910;2023-01-28T10:44:46;0.90;1.00
19878;DHT22;10101;52.204;9.910;2023-01-28T10:47:19;0.90;1.00
19878;DHT22;10101;52.204;9.910;2023-01-28T10:49:53;0.90;1.00
19878;DHT22;10101;52.204;9.910;2023-01-28T10:52:21;0.90;1.00
19878;DHT22;10101;52.204;9.910;2023-01-28T10:54:58;0.80;1.00
19878;DHT22;10101;52.204;9.910;2023-01-28T10:57:25;0.80;1.00
19878;DHT22;10101;52.204;9.910;2023-01-28T10:59:51;0.80;1.00
19878;DHT22;10101;52.204;9.910;2023-01-28T11:02:23;0.80;1.00
19878;DHT22;10101;52.204;9.910;2023-01-28T11:05:05;0.90;1.00
19878;DHT22;10101;52.204;9.910;2023-01-28T11:07:32;0.90;1.00
19878;DHT22;10101;52.204;9.910;2023-01-28T11:10:00;0.90;1.00
19878;DHT22;10101;52.204;9.910;2023-01-28T11:12:28;0.90;1.00
19878;DHT22;10101;52.204;9.910;2023-01-28T11:14:56;1.00;34.30
19878;DHT22;10101;52.204;9.910;2023-01-28T11:17:24;0.90;7.40
19878;DHT22;10101;52.204;9.910;2023-01-28T11:19:52;0.90;1.00
19878;DHT22;10101;52.204;9.910;2023-01-28T11:22:26;0.80;1.00
19878;DHT22;10101;52.204;9.910;2023-01-28T11:24:57;0.90;1.00
19878;DHT22;10101;52.204;9.910;2023-01-28T11:27:28;1.00;1.00
19878;DHT22;10101;52.204;9.910;2023-01-28T11:29:56;0.80;1.00
19878;DHT22;10101;52.204;9.910;2023-01-28T11:32:28;1.00;1.00
19878;DHT22;10101;52.204;9.910;2023-01-28T11:34:56;0.80;1.00
19878;DHT22;10101;52.204;9.910;2023-01-28T11:37:27;0.90;1.00
19878;DHT22;10101;52.204;9.910;2023-01-28T11:40:01;0.90;1.00
19878;DHT22;10101;52.204;9.910;2023-01-28T11:42:29;0.80;1.00
19878;DHT22;10101;52.204;9.910;2023-01-28T11:44:56;0.90;1.00
19878;DHT22;10101;52.204;9.910;2023-01-28T11:47:35;0.90;1.00
19878;DHT22;10101;52.204;9.910;2023-01-28T11:50:21;0.90;1.00
19878;DHT22;10101;52.204;9.910;2023-01-28T11:53:02;1.00;1.00
19878;DHT22;10101;52.204;9.910;2023-01-28T11:55:48;0.90;1.00
19878;DHT22;10101;52.204;9.910;2023-01-28T11:58:21;1.00;1.00
19878;DHT22;10101;52.204;9.910;2023-01-28T12:00:59;0.90;1.00
19878;DHT22;10101;52.204;9.910;2023-01-28T12:03:42;0.80;1.00
19878;DHT22;10101;52.204;9.910;2023-01-28T12:06:21;0.90;1.00
19878;DHT22;10101;52.204;9.910;2023-01-28T12:08:59;0.80;1.00
19878;DHT22;10101;52.204;9.910;2023-01-28T12:11:39;1.00;1.00
19878;DHT22;10101;52.204;9.910;2023-01-28T12:14:35;0.90;1.00
19878;DHT22;10101;52.204;9.910;2023-01-28T12:17:13;0.90;1.00
19878;DHT22;10101;52.204;9.910;2023-01-28T12:19:52;1.10;1.00
19878;DHT22;10101;52.204;9.910;2023-01-28T12:22:57;1.10;1.00
19878;DHT22;10101;52.204;9.910;2023-01-28T12:25:35;1.00;1.00
19878;DHT22;10101;52.204;9.910;2023-01-28T12:28:10;1.10;1.00
19878;DHT22;10101;52.204;9.910;2023-01-28T12:30:51;1.20;1.00
19878;DHT22;10101;52.204;9.910;2023-01-28T12:33:48;1.40;1.00
19878;DHT22;10101;52.204;9.910;2023-01-28T12:36:28;1.30;1.00
19878;DHT22;10101;52.204;9.910;2023-01-28T12:39:06;1.20;1.00
19878;DHT22;10101;52.204;9.910;2023-01-28T12:41:40;1.50;1.00
19878;DHT22;10101;52.204;9.910;2023-01-28T12:44:11;1.40;1.00
19878;DHT22;10101;52.204;9.910;2023-01-28T12:46:43;1.40;1.00
19878;DHT22;10101;52.204;9.910;2023-01-28T12:49:13;1.30;1.00
19878;DHT22;10101;52.204;9.910;2023-01-28T12:51:52;1.70;1.00
19878;DHT22;10101;52.204;9.910;2023-01-28T12:54:23;1.90;1.00
19878;DHT22;10101;52.204;9.910;2023-01-28T12:56:54;1.80;1.00
19878;DHT22;10101;52.204;9.910;2023-01-28T12:59:24;1.80;1.00
19878;DHT22;10101;52.204;9.910;2023-01-28T13:02:00;2.00;1.00
19878;DHT22;10101;52.204;9.910;2023-01-28T13:04:33;1.90;1.00
19878;DHT22;10101;52.204;9.910;2023-01-28T13:07:06;1.70;1.00
19878;DHT22;10101;52.204;9.910;2023-01-28T13:09:38;1.40;1.00
19878;DHT22;10101;52.204;9.910;2023-01-28T13:12:10;1.60;1.00
19878;DHT22;10101;52.204;9.910;2023-01-28T13:14:39;1.60;99.90
19878;DHT22;10101;52.204;9.910;2023-01-28T13:17:10;1.40;99.90
19878;DHT22;10101;52.204;9.910;2023-01-28T13:19:38;1.40;99.90
19878;DHT22;10101;52.204;9.910;2023-01-28T13:22:23;1.30;99.90
19878;DHT22;10101;52.204;9.910;2023-01-28T13:24:51;1.40;99.90
19878;DHT22;10101;52.204;9.910;2023-01-28T13:27:24;1.50;99.90
19878;DHT22;10101;52.204;9.910;2023-01-28T13:30:01;1.30;99.90
19878;DHT22;10101;52.204;9.910;2023-01-28T13:32:31;1.20;99.90
19878;DHT22;10101;52.204;9.910;2023-01-28T13:35:00;1.20;82.00
19878;DHT22;10101;52.204;9.910;2023-01-28T13:37:30;1.30;99.90
19878;DHT22;10101;52.204;9.910;2023-01-28T13:40:05;1.30;7.50
19878;DHT22;10101;52.204;9.910;2023-01-28T13:42:35;1.20;43.50
19878;DHT22;10101;52.204;9.910;2023-01-28T13:45:20;1.10;1.00
19878;DHT22;10101;52.204;9.910;2023-01-28T13:47:50;1.10;1.00
19878;DHT22;10101;52.204;9.910;2023-01-28T13:50:20;1.20;60.30
19878;DHT22;10101;52.204;9.910;2023-01-28T13:52:52;1.20;1.00
19878;DHT22;10101;52.204;9.910;2023-01-28T13:55:23;1.30;37.50
19878;DHT22;10101;52.204;9.910;2023-01-28T13:58:17;1.10;32.50
19878;DHT22;10101;52.204;9.910;2023-01-28T14:01:17;1.20;1.00
19878;DHT22;10101;52.204;9.910;2023-01-28T14:04:02;1.10;1.00
19878;DHT22;10101;52.204;9.910;2023-01-28T14:07:00;1.10;1.00
19878;DHT22;10101;52.204;9.910;2023-01-28T14:09:46;1.10;1.00
19878;DHT22;10101;52.204;9.910;2023-01-28T14:12:38;1.20;1.00
19878;DHT22;10101;52.204;9.910;2023-01-28T14:15:47;1.30;8.20
19878;DHT22;10101;52.204;9.910;2023-01-28T14:18:24;1.30;94.60
19878;DHT22;10101;52.204;9.910;2023-01-28T14:20:53;1.20;1.00
19878;DHT22;10101;52.204;9.910;2023-01-28T14:23:22;1.20;1.00
19878;DHT22;10101;52.204;9.910;2023-01-28T14:28:46;1.00;1.00
19878;DHT22;10101;52.204;9.910;2023-01-28T14:31:17;0.80;1.00
19878;DHT22;10101;52.204;9.910;2023-01-28T14:33:48;0.70;1.00
19878;DHT22;10101;52.204;9.910;2023-01-28T14:36:15;0.70;1.00
19878;DHT22;10101;52.204;9.910;2023-01-28T14:38:43;0.60;1.00
19878;DHT22;10101;52.204;9.910;2023-01-28T14:41:20;0.60;1.00
19878;DHT22;10101;52.204;9.910;2023-01-28T14:43:47;0.60;1.00
19878;DHT22;10101;52.204;9.910;2023-01-28T14:46:27;0.60;1.00
19878;DHT22;10101;52.204;9.910;2023-01-28T14:49:10;0.40;1.00
19878;DHT22;10101;52.204;9.910;2023-01-28T14:52:02;0.40;1.00
19878;DHT22;10101;52.204;9.910;2023-01-28T14:54:40;0.40;1.00
19878;DHT22;10101;52.204;9.910;2023-01-28T14:57:20;0.40;1.00
19878;DHT22;10101;52.204;9.910;2023-01-28T14:59:52;0.40;95.70
19878;DHT22;10101;52.204;9.910;2023-01-28T15:02:22;0.40;99.90
19878;DHT22;10101;52.204;9.910;2023-01-28T15:04:50;0.40;99.90
19878;DHT22;10101;52.204;9.910;2023-01-28T15:07:19;0.50;99.90
19878;DHT22;10101;52.204;9.910;2023-01-28T15:09:46;0.50;99.90
19878;DHT22;10101;52.204;9.910;2023-01-28T15:14:47;0.50;1.00
19878;DHT22;10101;52.204;9.910;2023-01-28T15:17:23;0.40;1.00
19878;DHT22;10101;52.204;9.910;2023-01-28T15:19:52;0.40;1.00
19878;DHT22;10101;52.204;9.910;2023-01-28T15:22:23;0.30;1.00
19878;DHT22;10101;52.204;9.910;2023-01-28T15:24:51;0.30;1.00
19878;DHT22;10101;52.204;9.910;2023-01-28T15:27:23;0.30;1.00
19878;DHT22;10101;52.204;9.910;2023-01-28T15:29:53;0.20;1.00
19878;DHT22;10101;52.204;9.910;2023-01-28T15:32:25;0.10;64.00
19878;DHT22;10101;52.204;9.910;2023-01-28T15:34:52;0.10;99.90
19878;DHT22;10101;52.204;9.910;2023-01-28T15:37:20;0.00;99.90
19878;DHT22;10101;52.204;9.910;2023-01-28T15:39:47;0.00;99.90
19878;DHT22;10101;52.204;9.910;2023-01-28T15:42:19;-0.10;1.00
19878;DHT22;10101;52.204;9.910;2023-01-28T15:44:47;-0.10;1.00
19878;DHT22;10101;52.204;9.910;2023-01-28T15:47:16;-0.10;1.00
19878;DHT22;10101;52.204;9.910;2023-01-28T15:49:49;-0.10;1.00
19878;DHT22;10101;52.204;9.910;2023-01-28T15:52:17;-0.20;48.00
19878;DHT22;10101;52.204;9.910;2023-01-28T15:54:47;-0.20;99.90
19878;DHT22;10101;52.204;9.910;2023-01-28T15:57:18;-0.30;99.90
19878;DHT22;10101;52.204;9.910;2023-01-28T15:59:45;-0.40;1.00
19878;DHT22;10101;52.204;9.910;2023-01-28T16:02:20;-0.40;1.00
19878;DHT22;10101;52.204;9.910;2023-01-28T16:04:58;-0.50;1.00
19878;DHT22;10101;52.204;9.910;2023-01-28T16:07:26;-0.60;99.90
19878;DHT22;10101;52.204;9.910;2023-01-28T16:09:54;-0.60;99.90
19878;DHT22;10101;52.204;9.910;2023-01-28T16:12:22;-0.60;1.00
19878;DHT22;10101;52.204;9.910;2023-01-28T16:14:53;-0.60;1.00
19878;DHT22;10101;52.204;9.910;2023-01-28T16:17:23;-0.70;45.40
19878;DHT22;10101;52.204;9.910;2023-01-28T16:19:55;-0.80;99.90
19878;DHT22;10101;52.204;9.910;2023-01-28T16:22:29;-0.80;1.00